Sunday, August 28, 2016
08:44 UTC
  |  Log In   |  Register Free
Airport Search:

Talladega Municipal Airport
(KASN)

Talladega Municipal Airport Diagram
No Airport Diagram Available

FAA data valid effective Jul 21 2016 - Sep 15 2016 (unless otherwise noted).

 
 
 
 
 
 
 
 
 
 
 
 
 
 
Current Aviation Weather for KASN

Weather Summary


The most recent METAR observation for ASN was updated at: 12:53 UTC
METAR for ASN is not available. Closest METAR is for
METAR

METAR KASN 280835Z 00000KT 10SM CLR 22/21 A3007 RMK AO2 T02200208

METAR KASN 280815Z 00000KT 10SM CLR 22/21 A3007 RMK AO2 T02230211

METAR KASN 280755Z 00000KT 10SM CLR 23/21 A3007 RMK AO2 T02250210

METAR KASN 280735Z 00000KT 10SM CLR 24/21 A3006 RMK AO2 T02400210

METAR KASN 280715Z 00000KT 10SM CLR 24/21 A3007 RMK AO2 T02420211

METAR KASN 280655Z 00000KT 10SM CLR 25/21 A3007 RMK AO2 T02460211

METAR KASN 280635Z 10003KT 10SM CLR 25/21 A3007 RMK AO2 T02490213

METAR KASN 280615Z 09005KT 10SM CLR 25/21 A3007 RMK AO2 T02500213

METAR KASN 280555Z 10005KT 10SM CLR 25/21 A3008 RMK AO2 T02470212 10311 20232 403460220

METAR KANB 280753Z 05004KT 10SM CLR 24/21 A3007 RMK AO2 SLP171 T02390206

METAR KBHM 280753Z 05004KT 10SM CLR 26/21 A3008 RMK AO2 SLP174 T02560206

METAR KGAD 280756Z 00000KT 10SM CLR 23/22 A3008 RMK AO2 SLP193 T02280217

TAF for ASN is not available.
TAF

KASN - TAF KASN 280520Z 2806/2906 08003KT P6SM FEW250

KASN - FM281600 08006KT P6SM SCT050

KASN - FM290100 07003KT P6SM SCT250 =

KANB - TAF KANB 280520Z 2806/2906 08003KT P6SM FEW250

KANB - FM281600 08006KT P6SM SCT050

KANB - FM290100 07003KT P6SM SCT250 =

KBHM - TAF KBHM 280520Z 2806/2906 09003KT P6SM FEW250

KBHM - FM281600 10007KT P6SM SCT050

KBHM - FM290100 07003KT P6SM SCT250 =

GlobalAir.com is loading additional information.
 Current Weather at ASN
76.0 F° (24.6 C°)

North winds at 0.0 mph
Pressure:
30.07 in
Humidity:
81%
Wind:
North at 0.0 mph
Dew Point:
70.0 F° (21.1 C°)
Visibility:
10.00 mi
ASN NOAA Radar




Find All Airport Services Find A Hotel Find A Rental Car Find A Golf Course Find A Restaurant $100 Hamburger



Airport Weather Forecast for KASN

Translated METAR for KASN (0835 UTC)
METAR:
KASN 280835Z AUTO Talladega Municipal, Talladega, AL (KASN). Aug 28, 0835Z, Automated. Wind is Calm, 10 statute miles visibility, Clear Skies, Temperature 22°C, Dewpoint 21°C, Altimeter is 30.07. Remarks: automated station with precipitation discriminator hourly temp 22.0°C dewpoint 20.8°C
Conditions at:
KASN (Talladega Muni, AL) observed 0835 UTC 28 August 2016
Temperature:
76.0 F° (24.6 C°)
Dewpoint:
not reported - refer to area weather report
Pressure:
30.07 Hg
Winds:
not reported
Visibility:
10.00
Ceiling:
at least 12,000 feet AGL
Clouds:
not reported - refer to area weather report
Remarks:
site is un-manned

Translated TAF for TAF for ASN is not available. Refer to local area forecast.
FBO's on the Field
FBO Company Facility Photos Services Transportation Aviation Fuel Prices: Prices include tax
Catering Weather Repair Courtesy Rental Type 100LL JetA JetA+ MOGAS 8087
 
Talladega Municipal

This FBO has not yet been rated
FS:Phillips 66
Last Updated: Aug-22
Login to update fuel prices
SS:
Contact Talladega MunicipalMore FBO Information
 
Add another FBO Facility Photos Catering Weather Repair Courtesy Rental Type 100LL JetA JetA+ MOGAS 8087
Services Transportation Aviation Fuel Prices: Prices include tax


model-print
model-print
model-print
model-print